sensor_id;sensor_type;location;lat;lon;timestamp;pressure;altitude;pressure_sealevel;temperature;humidity
47366;BME280;33105;47.964;7.982;2024-02-26T00:01:54;94741.78;;;7.85;58.63
47366;BME280;33105;47.964;7.982;2024-02-26T00:04:55;94746.94;;;7.87;59.14
47366;BME280;33105;47.964;7.982;2024-02-26T00:07:57;94746.66;;;7.88;61.13
47366;BME280;33105;47.964;7.982;2024-02-26T00:10:58;94752.88;;;8.07;62.15
47366;BME280;33105;47.964;7.982;2024-02-26T00:13:59;94750.75;;;7.85;63.03
47366;BME280;33105;47.964;7.982;2024-02-26T00:17:01;94745.91;;;7.82;63.13
47366;BME280;33105;47.964;7.982;2024-02-26T00:20:02;94757.53;;;7.88;63.20
47366;BME280;33105;47.964;7.982;2024-02-26T00:23:05;94757.13;;;7.76;64.02
47366;BME280;33105;47.964;7.982;2024-02-26T00:26:06;94746.84;;;7.73;64.53
47366;BME280;33105;47.964;7.982;2024-02-26T00:29:09;94742.66;;;7.99;64.40
47366;BME280;33105;47.964;7.982;2024-02-26T00:32:10;94752.72;;;7.80;65.87
47366;BME280;33105;47.964;7.982;2024-02-26T00:35:11;94757.50;;;7.69;65.51
47366;BME280;33105;47.964;7.982;2024-02-26T00:38:13;94747.59;;;7.97;67.41
47366;BME280;33105;47.964;7.982;2024-02-26T00:41:14;94732.91;;;7.61;69.37
47366;BME280;33105;47.964;7.982;2024-02-26T00:44:15;94734.34;;;7.72;68.81
47366;BME280;33105;47.964;7.982;2024-02-26T00:47:16;94737.06;;;7.53;71.24
47366;BME280;33105;47.964;7.982;2024-02-26T00:50:18;94732.72;;;7.52;74.16
47366;BME280;33105;47.964;7.982;2024-02-26T00:53:19;94740.75;;;7.62;nan
47366;BME280;33105;47.964;7.982;2024-02-26T00:56:21;94746.91;;;7.49;78.57
47366;BME280;33105;47.964;7.982;2024-02-26T00:59:22;94738.13;;;7.33;79.34
47366;BME280;33105;47.964;7.982;2024-02-26T01:02:24;94745.06;;;7.21;83.57
47366;BME280;33105;47.964;7.982;2024-02-26T01:05:25;94745.88;;;7.21;84.88
47366;BME280;33105;47.964;7.982;2024-02-26T01:08:26;94744.13;;;7.11;85.40
47366;BME280;33105;47.964;7.982;2024-02-26T01:11:27;94739.78;;;6.87;87.43
47366;BME280;33105;47.964;7.982;2024-02-26T01:14:29;94745.44;;;7.14;90.02
47366;BME280;33105;47.964;7.982;2024-02-26T01:17:30;94741.53;;;6.96;92.90
47366;BME280;33105;47.964;7.982;2024-02-26T01:20:31;94747.50;;;6.98;92.74
47366;BME280;33105;47.964;7.982;2024-02-26T01:23:32;94744.16;;;6.82;92.94
47366;BME280;33105;47.964;7.982;2024-02-26T01:26:34;94735.00;;;6.73;92.64
47366;BME280;33105;47.964;7.982;2024-02-26T01:29:35;94743.06;;;6.55;90.89
47366;BME280;33105;47.964;7.982;2024-02-26T01:32:36;94739.50;;;6.59;92.88
47366;BME280;33105;47.964;7.982;2024-02-26T01:35:37;94738.13;;;6.62;93.67
47366;BME280;33105;47.964;7.982;2024-02-26T01:38:38;94722.78;;;6.76;93.13
47366;BME280;33105;47.964;7.982;2024-02-26T01:41:40;94730.41;;;6.98;92.46
47366;BME280;33105;47.964;7.982;2024-02-26T01:44:41;94736.50;;;6.90;92.87
47366;BME280;33105;47.964;7.982;2024-02-26T01:47:43;94737.28;;;6.90;92.86
47366;BME280;33105;47.964;7.982;2024-02-26T01:50:44;94732.72;;;7.09;92.10
47366;BME280;33105;47.964;7.982;2024-02-26T01:53:46;94735.38;;;6.67;93.27
47366;BME280;33105;47.964;7.982;2024-02-26T01:56:47;94741.81;;;6.71;93.13
47366;BME280;33105;47.964;7.982;2024-02-26T01:59:50;94741.47;;;6.77;92.87
47366;BME280;33105;47.964;7.982;2024-02-26T02:02:51;94742.53;;;6.81;91.43
47366;BME280;33105;47.964;7.982;2024-02-26T02:05:53;94749.50;;;7.16;89.13
47366;BME280;33105;47.964;7.982;2024-02-26T02:08:55;94748.59;;;6.97;90.97
47366;BME280;33105;47.964;7.982;2024-02-26T02:11:56;94752.47;;;6.91;91.61
47366;BME280;33105;47.964;7.982;2024-02-26T02:14:58;94750.06;;;6.90;91.72
47366;BME280;33105;47.964;7.982;2024-02-26T02:18:00;94748.25;;;6.80;92.63
47366;BME280;33105;47.964;7.982;2024-02-26T02:21:01;94755.56;;;6.79;95.94
47366;BME280;33105;47.964;7.982;2024-02-26T02:24:03;94756.31;;;6.27;100.00
47366;BME280;33105;47.964;7.982;2024-02-26T02:27:04;94756.84;;;6.29;98.79
47366;BME280;33105;47.964;7.982;2024-02-26T02:30:06;94761.34;;;6.73;94.28
47366;BME280;33105;47.964;7.982;2024-02-26T02:33:08;94749.91;;;6.76;95.79
47366;BME280;33105;47.964;7.982;2024-02-26T02:36:10;94744.97;;;6.83;95.92
47366;BME280;33105;47.964;7.982;2024-02-26T02:39:12;94740.72;;;6.72;99.07
47366;BME280;33105;47.964;7.982;2024-02-26T02:42:13;94731.03;;;6.66;100.00
47366;BME280;33105;47.964;7.982;2024-02-26T02:45:14;94735.81;;;6.45;100.00
47366;BME280;33105;47.964;7.982;2024-02-26T02:48:16;94733.50;;;6.33;100.00
47366;BME280;33105;47.964;7.982;2024-02-26T02:51:17;94731.03;;;6.37;100.00
47366;BME280;33105;47.964;7.982;2024-02-26T02:54:18;94732.41;;;6.34;100.00
47366;BME280;33105;47.964;7.982;2024-02-26T02:57:19;94734.72;;;6.46;100.00
47366;BME280;33105;47.964;7.982;2024-02-26T03:00:21;94727.03;;;6.58;100.00
47366;BME280;33105;47.964;7.982;2024-02-26T03:03:23;94728.78;;;6.44;100.00
47366;BME280;33105;47.964;7.982;2024-02-26T03:06:26;94729.31;;;6.46;100.00
47366;BME280;33105;47.964;7.982;2024-02-26T03:09:28;94719.13;;;6.33;100.00
47366;BME280;33105;47.964;7.982;2024-02-26T03:12:30;94725.38;;;6.33;100.00
47366;BME280;33105;47.964;7.982;2024-02-26T03:15:31;94722.06;;;6.41;100.00
47366;BME280;33105;47.964;7.982;2024-02-26T03:18:33;94728.84;;;6.39;100.00
47366;BME280;33105;47.964;7.982;2024-02-26T03:21:34;94736.03;;;6.20;100.00
47366;BME280;33105;47.964;7.982;2024-02-26T03:24:35;94737.25;;;6.03;100.00
47366;BME280;33105;47.964;7.982;2024-02-26T03:27:36;94738.75;;;5.80;100.00
47366;BME280;33105;47.964;7.982;2024-02-26T03:30:38;94757.25;;;6.12;100.00
47366;BME280;33105;47.964;7.982;2024-02-26T03:33:39;94743.28;;;5.95;100.00
47366;BME280;33105;47.964;7.982;2024-02-26T03:36:41;94746.34;;;5.78;100.00
47366;BME280;33105;47.964;7.982;2024-02-26T03:39:43;94740.97;;;6.18;100.00
47366;BME280;33105;47.964;7.982;2024-02-26T03:42:44;94741.00;;;6.12;100.00
47366;BME280;33105;47.964;7.982;2024-02-26T03:45:45;94741.72;;;5.89;100.00
47366;BME280;33105;47.964;7.982;2024-02-26T03:48:46;94752.47;;;5.99;100.00
47366;BME280;33105;47.964;7.982;2024-02-26T03:51:48;94746.16;;;6.14;100.00
47366;BME280;33105;47.964;7.982;2024-02-26T03:54:49;94745.16;;;6.00;100.00
47366;BME280;33105;47.964;7.982;2024-02-26T03:57:51;94749.56;;;5.91;100.00
47366;BME280;33105;47.964;7.982;2024-02-26T04:00:52;94755.75;;;5.96;100.00
47366;BME280;33105;47.964;7.982;2024-02-26T04:03:54;94754.72;;;5.92;100.00
47366;BME280;33105;47.964;7.982;2024-02-26T04:06:55;94760.34;;;5.96;100.00
47366;BME280;33105;47.964;7.982;2024-02-26T04:09:56;94764.81;;;5.71;100.00
47366;BME280;33105;47.964;7.982;2024-02-26T04:12:58;94765.34;;;5.73;100.00
47366;BME280;33105;47.964;7.982;2024-02-26T04:16:00;94766.16;;;5.74;100.00
47366;BME280;33105;47.964;7.982;2024-02-26T04:19:02;94761.78;;;5.78;100.00
47366;BME280;33105;47.964;7.982;2024-02-26T04:22:03;94762.34;;;5.80;100.00
47366;BME280;33105;47.964;7.982;2024-02-26T04:25:05;94752.84;;;5.82;100.00
47366;BME280;33105;47.964;7.982;2024-02-26T04:28:06;94752.66;;;5.69;100.00
47366;BME280;33105;47.964;7.982;2024-02-26T04:31:07;94767.53;;;5.71;100.00
47366;BME280;33105;47.964;7.982;2024-02-26T04:34:08;94769.66;;;5.79;100.00
47366;BME280;33105;47.964;7.982;2024-02-26T04:37:10;94773.41;;;5.94;100.00
47366;BME280;33105;47.964;7.982;2024-02-26T04:40:11;94774.25;;;5.89;100.00
47366;BME280;33105;47.964;7.982;2024-02-26T04:43:12;94771.00;;;5.82;100.00
47366;BME280;33105;47.964;7.982;2024-02-26T04:46:14;94788.34;;;5.81;100.00
47366;BME280;33105;47.964;7.982;2024-02-26T04:49:15;94786.22;;;5.73;100.00
47366;BME280;33105;47.964;7.982;2024-02-26T04:52:17;94798.13;;;5.72;100.00
47366;BME280;33105;47.964;7.982;2024-02-26T04:55:18;94791.34;;;5.74;100.00
47366;BME280;33105;47.964;7.982;2024-02-26T04:58:19;94799.19;;;5.81;100.00
47366;BME280;33105;47.964;7.982;2024-02-26T05:01:20;94796.16;;;5.88;100.00
47366;BME280;33105;47.964;7.982;2024-02-26T05:04:22;94798.53;;;6.04;100.00
47366;BME280;33105;47.964;7.982;2024-02-26T05:07:23;94797.78;;;5.94;100.00
47366;BME280;33105;47.964;7.982;2024-02-26T05:10:24;94787.63;;;5.60;100.00
47366;BME280;33105;47.964;7.982;2024-02-26T05:13:25;94798.38;;;5.80;100.00
47366;BME280;33105;47.964;7.982;2024-02-26T05:16:26;94798.47;;;5.65;100.00
47366;BME280;33105;47.964;7.982;2024-02-26T05:19:28;94797.53;;;5.85;100.00
47366;BME280;33105;47.964;7.982;2024-02-26T05:22:29;94802.00;;;5.61;100.00
47366;BME280;33105;47.964;7.982;2024-02-26T05:25:30;94802.34;;;5.98;100.00
47366;BME280;33105;47.964;7.982;2024-02-26T05:28:32;94799.31;;;6.05;100.00
47366;BME280;33105;47.964;7.982;2024-02-26T05:31:33;94803.44;;;5.97;100.00
47366;BME280;33105;47.964;7.982;2024-02-26T05:34:34;94796.97;;;5.88;100.00
47366;BME280;33105;47.964;7.982;2024-02-26T05:37:35;94793.03;;;6.14;100.00
47366;BME280;33105;47.964;7.982;2024-02-26T05:40:37;94806.63;;;6.09;100.00
47366;BME280;33105;47.964;7.982;2024-02-26T05:43:38;94804.03;;;5.89;100.00
47366;BME280;33105;47.964;7.982;2024-02-26T05:46:39;94808.03;;;6.02;100.00
47366;BME280;33105;47.964;7.982;2024-02-26T05:49:40;94814.84;;;5.94;100.00
47366;BME280;33105;47.964;7.982;2024-02-26T05:52:42;94817.06;;;5.77;100.00
47366;BME280;33105;47.964;7.982;2024-02-26T05:55:44;94816.50;;;5.85;100.00
47366;BME280;33105;47.964;7.982;2024-02-26T05:58:45;94823.25;;;5.88;100.00
47366;BME280;33105;47.964;7.982;2024-02-26T06:01:46;94826.78;;;5.88;100.00
47366;BME280;33105;47.964;7.982;2024-02-26T06:04:47;94825.38;;;6.01;100.00
47366;BME280;33105;47.964;7.982;2024-02-26T06:07:48;94821.84;;;6.00;100.00
47366;BME280;33105;47.964;7.982;2024-02-26T06:10:49;94817.03;;;5.92;100.00
47366;BME280;33105;47.964;7.982;2024-02-26T06:13:50;94813.47;;;5.97;100.00
47366;BME280;33105;47.964;7.982;2024-02-26T06:16:52;94818.66;;;5.93;100.00
47366;BME280;33105;47.964;7.982;2024-02-26T06:19:53;94819.75;;;5.87;100.00
47366;BME280;33105;47.964;7.982;2024-02-26T06:22:55;94814.59;;;5.91;100.00
47366;BME280;33105;47.964;7.982;2024-02-26T06:25:56;94823.00;;;5.89;100.00
47366;BME280;33105;47.964;7.982;2024-02-26T06:28:57;94824.13;;;5.73;100.00
47366;BME280;33105;47.964;7.982;2024-02-26T06:31:59;94815.53;;;5.66;100.00
47366;BME280;33105;47.964;7.982;2024-02-26T06:35:00;94827.22;;;5.46;100.00
47366;BME280;33105;47.964;7.982;2024-02-26T06:38:01;94828.94;;;5.27;100.00
47366;BME280;33105;47.964;7.982;2024-02-26T06:41:02;94834.88;;;5.39;100.00
47366;BME280;33105;47.964;7.982;2024-02-26T06:44:04;94827.78;;;5.48;100.00
47366;BME280;33105;47.964;7.982;2024-02-26T06:47:06;94836.22;;;5.36;100.00
47366;BME280;33105;47.964;7.982;2024-02-26T06:50:07;94833.00;;;5.24;100.00
47366;BME280;33105;47.964;7.982;2024-02-26T06:53:08;94837.91;;;5.17;100.00
47366;BME280;33105;47.964;7.982;2024-02-26T06:56:10;94845.25;;;5.01;100.00
47366;BME280;33105;47.964;7.982;2024-02-26T06:59:11;94829.53;;;5.08;100.00
47366;BME280;33105;47.964;7.982;2024-02-26T07:02:15;94819.53;;;5.09;100.00
47366;BME280;33105;47.964;7.982;2024-02-26T07:05:17;94808.53;;;5.50;100.00
47366;BME280;33105;47.964;7.982;2024-02-26T07:08:18;94805.91;;;5.94;100.00
47366;BME280;33105;47.964;7.982;2024-02-26T07:11:20;94810.00;;;5.86;100.00
47366;BME280;33105;47.964;7.982;2024-02-26T07:14:21;94814.28;;;5.97;100.00
47366;BME280;33105;47.964;7.982;2024-02-26T07:17:23;94827.28;;;5.95;100.00
47366;BME280;33105;47.964;7.982;2024-02-26T07:20:25;94830.00;;;5.95;100.00
47366;BME280;33105;47.964;7.982;2024-02-26T07:23:26;94831.69;;;5.81;100.00
47366;BME280;33105;47.964;7.982;2024-02-26T07:26:27;94833.34;;;5.72;100.00
47366;BME280;33105;47.964;7.982;2024-02-26T07:29:31;94828.44;;;5.79;100.00
47366;BME280;33105;47.964;7.982;2024-02-26T07:32:32;94835.50;;;5.80;100.00
47366;BME280;33105;47.964;7.982;2024-02-26T07:35:33;94835.28;;;5.66;100.00
47366;BME280;33105;47.964;7.982;2024-02-26T07:38:34;94841.00;;;5.60;100.00
47366;BME280;33105;47.964;7.982;2024-02-26T07:41:35;94842.44;;;5.42;100.00
47366;BME280;33105;47.964;7.982;2024-02-26T07:44:37;94835.59;;;5.60;100.00
47366;BME280;33105;47.964;7.982;2024-02-26T07:47:38;94830.25;;;5.39;100.00
47366;BME280;33105;47.964;7.982;2024-02-26T07:50:41;94835.53;;;5.70;100.00
47366;BME280;33105;47.964;7.982;2024-02-26T07:53:43;94844.41;;;5.91;100.00
47366;BME280;33105;47.964;7.982;2024-02-26T07:56:44;94842.91;;;6.19;100.00
47366;BME280;33105;47.964;7.982;2024-02-26T07:59:45;94847.97;;;6.30;100.00
47366;BME280;33105;47.964;7.982;2024-02-26T08:02:50;94846.44;;;6.14;100.00
47366;BME280;33105;47.964;7.982;2024-02-26T08:05:51;94837.38;;;5.85;100.00
47366;BME280;33105;47.964;7.982;2024-02-26T08:08:53;94845.63;;;6.13;100.00
47366;BME280;33105;47.964;7.982;2024-02-26T08:11:54;94837.78;;;6.12;100.00
47366;BME280;33105;47.964;7.982;2024-02-26T08:14:56;94844.56;;;6.09;100.00
47366;BME280;33105;47.964;7.982;2024-02-26T08:17:59;94845.09;;;6.17;100.00
47366;BME280;33105;47.964;7.982;2024-02-26T08:21:03;94831.75;;;6.59;100.00
47366;BME280;33105;47.964;7.982;2024-02-26T08:24:04;94831.09;;;6.38;100.00
47366;BME280;33105;47.964;7.982;2024-02-26T08:27:06;94831.47;;;6.22;100.00
47366;BME280;33105;47.964;7.982;2024-02-26T08:30:07;94822.19;;;6.33;100.00
47366;BME280;33105;47.964;7.982;2024-02-26T08:33:09;94820.25;;;6.38;100.00
47366;BME280;33105;47.964;7.982;2024-02-26T08:36:11;94822.31;;;6.52;100.00
47366;BME280;33105;47.964;7.982;2024-02-26T08:39:12;94821.19;;;6.87;100.00
47366;BME280;33105;47.964;7.982;2024-02-26T08:42:14;94833.16;;;7.14;100.00
47366;BME280;33105;47.964;7.982;2024-02-26T08:45:15;94832.72;;;7.26;100.00
47366;BME280;33105;47.964;7.982;2024-02-26T08:48:17;94840.78;;;7.36;100.00
47366;BME280;33105;47.964;7.982;2024-02-26T08:51:18;94845.16;;;7.32;100.00
47366;BME280;33105;47.964;7.982;2024-02-26T08:54:19;94849.06;;;7.21;100.00
47366;BME280;33105;47.964;7.982;2024-02-26T08:57:20;94846.19;;;7.12;100.00
47366;BME280;33105;47.964;7.982;2024-02-26T09:00:22;94854.63;;;7.11;100.00
47366;BME280;33105;47.964;7.982;2024-02-26T09:03:23;94845.41;;;7.36;100.00
47366;BME280;33105;47.964;7.982;2024-02-26T09:06:24;94835.63;;;7.35;100.00
47366;BME280;33105;47.964;7.982;2024-02-26T09:09:26;94836.25;;;7.74;100.00
47366;BME280;33105;47.964;7.982;2024-02-26T09:12:27;94837.72;;;8.09;100.00
47366;BME280;33105;47.964;7.982;2024-02-26T09:15:28;94839.69;;;8.23;100.00
47366;BME280;33105;47.964;7.982;2024-02-26T09:18:29;94843.38;;;8.32;100.00
47366;BME280;33105;47.964;7.982;2024-02-26T09:21:30;94854.00;;;8.33;100.00
47366;BME280;33105;47.964;7.982;2024-02-26T09:24:32;94860.09;;;8.63;100.00
47366;BME280;33105;47.964;7.982;2024-02-26T09:27:33;94866.19;;;8.55;100.00
47366;BME280;33105;47.964;7.982;2024-02-26T09:30:34;94856.25;;;8.45;100.00
47366;BME280;33105;47.964;7.982;2024-02-26T09:33:36;94856.16;;;8.12;100.00
47366;BME280;33105;47.964;7.982;2024-02-26T09:36:37;94865.53;;;8.01;100.00
47366;BME280;33105;47.964;7.982;2024-02-26T09:39:38;94873.38;;;7.84;100.00
47366;BME280;33105;47.964;7.982;2024-02-26T09:42:45;94875.06;;;7.80;100.00
47366;BME280;33105;47.964;7.982;2024-02-26T09:45:47;94874.81;;;7.76;100.00
47366;BME280;33105;47.964;7.982;2024-02-26T09:48:48;94868.03;;;7.98;100.00
47366;BME280;33105;47.964;7.982;2024-02-26T09:51:50;94876.94;;;8.03;100.00
47366;BME280;33105;47.964;7.982;2024-02-26T09:54:52;94874.41;;;8.31;100.00
47366;BME280;33105;47.964;7.982;2024-02-26T09:57:55;94872.50;;;8.50;100.00
47366;BME280;33105;47.964;7.982;2024-02-26T10:00:57;94871.09;;;8.71;100.00
47366;BME280;33105;47.964;7.982;2024-02-26T10:04:01;94875.38;;;9.10;100.00
47366;BME280;33105;47.964;7.982;2024-02-26T10:07:04;94877.47;;;9.45;100.00
47366;BME280;33105;47.964;7.982;2024-02-26T10:10:08;94877.19;;;9.61;100.00
47366;BME280;33105;47.964;7.982;2024-02-26T10:13:09;94885.88;;;9.63;100.00
47366;BME280;33105;47.964;7.982;2024-02-26T10:16:12;94884.78;;;9.64;100.00
47366;BME280;33105;47.964;7.982;2024-02-26T10:19:25;94883.03;;;9.68;100.00
47366;BME280;33105;47.964;7.982;2024-02-26T10:22:27;94885.78;;;9.95;100.00
47366;BME280;33105;47.964;7.982;2024-02-26T10:25:28;94890.13;;;9.69;100.00
47366;BME280;33105;47.964;7.982;2024-02-26T10:28:29;94882.22;;;9.53;100.00
47366;BME280;33105;47.964;7.982;2024-02-26T10:31:31;94885.25;;;9.66;100.00
47366;BME280;33105;47.964;7.982;2024-02-26T10:34:32;94879.94;;;9.74;100.00
47366;BME280;33105;47.964;7.982;2024-02-26T10:37:33;94871.25;;;9.86;100.00
47366;BME280;33105;47.964;7.982;2024-02-26T10:40:34;94867.19;;;9.70;100.00
47366;BME280;33105;47.964;7.982;2024-02-26T10:43:35;94883.75;;;9.73;100.00
47366;BME280;33105;47.964;7.982;2024-02-26T10:46:37;94885.88;;;10.04;100.00
47366;BME280;33105;47.964;7.982;2024-02-26T10:49:45;94892.13;;;10.18;100.00
47366;BME280;33105;47.964;7.982;2024-02-26T10:52:47;94899.22;;;9.92;96.36
47366;BME280;33105;47.964;7.982;2024-02-26T10:55:52;94904.91;;;10.36;91.39
47366;BME280;33105;47.964;7.982;2024-02-26T10:58:55;94904.63;;;11.18;89.34
47366;BME280;33105;47.964;7.982;2024-02-26T11:01:57;94910.59;;;11.43;85.92
47366;BME280;33105;47.964;7.982;2024-02-26T11:04:58;94908.69;;;11.74;92.09
47366;BME280;33105;47.964;7.982;2024-02-26T11:08:02;94904.56;;;11.54;91.83
47366;BME280;33105;47.964;7.982;2024-02-26T11:11:04;94899.56;;;10.89;79.26
47366;BME280;33105;47.964;7.982;2024-02-26T11:14:08;94910.56;;;11.12;83.30
47366;BME280;33105;47.964;7.982;2024-02-26T11:17:11;94909.47;;;10.99;87.11
47366;BME280;33105;47.964;7.982;2024-02-26T11:20:14;94903.81;;;10.96;89.31
47366;BME280;33105;47.964;7.982;2024-02-26T11:23:15;94902.44;;;11.51;79.12
47366;BME280;33105;47.964;7.982;2024-02-26T11:26:17;94893.38;;;11.42;79.12
47366;BME280;33105;47.964;7.982;2024-02-26T11:29:21;94892.88;;;11.40;81.61
47366;BME280;33105;47.964;7.982;2024-02-26T11:32:23;94892.53;;;11.33;86.87
47366;BME280;33105;47.964;7.982;2024-02-26T11:35:25;94889.78;;;11.64;74.78
47366;BME280;33105;47.964;7.982;2024-02-26T11:38:26;94883.06;;;12.01;70.89
47366;BME280;33105;47.964;7.982;2024-02-26T11:41:28;94888.94;;;11.77;87.36
47366;BME280;33105;47.964;7.982;2024-02-26T11:44:29;94884.16;;;11.61;77.11
47366;BME280;33105;47.964;7.982;2024-02-26T11:47:34;94877.78;;;12.13;75.72
47366;BME280;33105;47.964;7.982;2024-02-26T11:50:39;94879.69;;;12.70;62.44
47366;BME280;33105;47.964;7.982;2024-02-26T11:53:46;94875.50;;;12.72;65.48
47366;BME280;33105;47.964;7.982;2024-02-26T11:56:50;94880.16;;;12.72;65.60
47366;BME280;33105;47.964;7.982;2024-02-26T11:59:51;94885.66;;;12.72;66.14
47366;BME280;33105;47.964;7.982;2024-02-26T12:02:53;94875.69;;;12.84;62.19
47366;BME280;33105;47.964;7.982;2024-02-26T12:06:02;94872.28;;;12.70;66.92
47366;BME280;33105;47.964;7.982;2024-02-26T12:09:05;94872.63;;;12.86;62.98
47366;BME280;33105;47.964;7.982;2024-02-26T12:12:08;94870.34;;;12.71;66.61
47366;BME280;33105;47.964;7.982;2024-02-26T12:15:10;94867.13;;;12.94;65.90
47366;BME280;33105;47.964;7.982;2024-02-26T12:18:18;94878.09;;;12.86;64.19
47366;BME280;33105;47.964;7.982;2024-02-26T12:21:19;94880.03;;;12.85;66.83
47366;BME280;33105;47.964;7.982;2024-02-26T12:24:21;94876.97;;;13.21;58.84
47366;BME280;33105;47.964;7.982;2024-02-26T12:27:22;94889.53;;;12.97;62.79
47366;BME280;33105;47.964;7.982;2024-02-26T12:30:24;94887.44;;;13.02;63.30
47366;BME280;33105;47.964;7.982;2024-02-26T12:33:35;94880.47;;;13.13;66.69
47366;BME280;33105;47.964;7.982;2024-02-26T12:36:37;94882.94;;;13.32;60.84
47366;BME280;33105;47.964;7.982;2024-02-26T12:39:39;94872.41;;;13.43;59.42
47366;BME280;33105;47.964;7.982;2024-02-26T12:42:40;94869.31;;;13.61;60.07
47366;BME280;33105;47.964;7.982;2024-02-26T12:45:43;94872.94;;;13.36;58.29
47366;BME280;33105;47.964;7.982;2024-02-26T12:48:48;94882.69;;;13.63;59.77
47366;BME280;33105;47.964;7.982;2024-02-26T12:51:50;94877.25;;;14.01;54.42
47366;BME280;33105;47.964;7.982;2024-02-26T12:54:51;94872.88;;;14.09;55.07
47366;BME280;33105;47.964;7.982;2024-02-26T12:57:53;94879.13;;;13.80;56.12
47366;BME280;33105;47.964;7.982;2024-02-26T13:00:55;94870.16;;;14.00;54.94
47366;BME280;33105;47.964;7.982;2024-02-26T13:03:57;94875.72;;;13.83;62.68
47366;BME280;33105;47.964;7.982;2024-02-26T13:06:59;94877.41;;;14.05;56.58
47366;BME280;33105;47.964;7.982;2024-02-26T13:10:04;94874.09;;;14.20;51.71
47366;BME280;33105;47.964;7.982;2024-02-26T13:13:05;94882.44;;;13.94;51.18
47366;BME280;33105;47.964;7.982;2024-02-26T13:16:10;94880.59;;;13.69;54.65
47366;BME280;33105;47.964;7.982;2024-02-26T13:19:15;94878.09;;;13.29;56.03
47366;BME280;33105;47.964;7.982;2024-02-26T13:22:16;94883.88;;;13.53;52.58
47366;BME280;33105;47.964;7.982;2024-02-26T13:25:21;94875.31;;;13.55;54.94
47366;BME280;33105;47.964;7.982;2024-02-26T13:28:22;94881.66;;;13.30;58.47
47366;BME280;33105;47.964;7.982;2024-02-26T13:31:25;94881.13;;;13.45;56.87
47366;BME280;33105;47.964;7.982;2024-02-26T13:34:28;94873.47;;;13.68;52.94
47366;BME280;33105;47.964;7.982;2024-02-26T13:37:31;94878.38;;;13.53;56.62
47366;BME280;33105;47.964;7.982;2024-02-26T13:40:32;94874.38;;;13.25;59.80
47366;BME280;33105;47.964;7.982;2024-02-26T13:43:35;94876.47;;;13.28;61.17
47366;BME280;33105;47.964;7.982;2024-02-26T13:46:36;94891.97;;;13.24;59.57
47366;BME280;33105;47.964;7.982;2024-02-26T13:49:37;94892.09;;;13.45;59.56
47366;BME280;33105;47.964;7.982;2024-02-26T13:52:39;94891.66;;;13.17;66.65
47366;BME280;33105;47.964;7.982;2024-02-26T13:55:40;94885.16;;;13.13;72.91
47366;BME280;33105;47.964;7.982;2024-02-26T13:58:44;94889.69;;;13.09;73.72
47366;BME280;33105;47.964;7.982;2024-02-26T14:01:45;94885.66;;;12.89;74.26
47366;BME280;33105;47.964;7.982;2024-02-26T14:04:46;94891.97;;;13.24;73.91
47366;BME280;33105;47.964;7.982;2024-02-26T14:07:48;94883.41;;;13.17;75.80
47366;BME280;33105;47.964;7.982;2024-02-26T14:10:49;94878.75;;;13.26;74.21
47366;BME280;33105;47.964;7.982;2024-02-26T14:13:50;94878.88;;;13.38;75.09
47366;BME280;33105;47.964;7.982;2024-02-26T14:16:52;94870.16;;;13.45;71.27
47366;BME280;33105;47.964;7.982;2024-02-26T14:19:53;94876.47;;;13.19;76.37
47366;BME280;33105;47.964;7.982;2024-02-26T14:22:55;94881.97;;;13.02;79.41
47366;BME280;33105;47.964;7.982;2024-02-26T14:25:56;94878.09;;;12.94;79.37
47366;BME280;33105;47.964;7.982;2024-02-26T14:28:57;94885.97;;;12.87;80.69
47366;BME280;33105;47.964;7.982;2024-02-26T14:31:58;94884.53;;;12.81;80.11
47366;BME280;33105;47.964;7.982;2024-02-26T14:35:00;94886.47;;;12.81;77.86
47366;BME280;33105;47.964;7.982;2024-02-26T14:38:01;94885.19;;;12.95;79.35
47366;BME280;33105;47.964;7.982;2024-02-26T14:41:02;94886.47;;;12.81;80.31
47366;BME280;33105;47.964;7.982;2024-02-26T14:44:04;94897.13;;;12.82;79.28
47366;BME280;33105;47.964;7.982;2024-02-26T14:47:05;94897.75;;;12.79;81.75
47366;BME280;33105;47.964;7.982;2024-02-26T14:50:06;94888.72;;;13.05;82.11
47366;BME280;33105;47.964;7.982;2024-02-26T14:53:08;94897.13;;;12.82;79.91
47366;BME280;33105;47.964;7.982;2024-02-26T14:56:09;94896.13;;;12.87;77.56
47366;BME280;33105;47.964;7.982;2024-02-26T14:59:10;94899.97;;;12.69;76.94
47366;BME280;33105;47.964;7.982;2024-02-26T15:02:11;94899.81;;;12.65;78.97
47366;BME280;33105;47.964;7.982;2024-02-26T15:05:13;94907.22;;;12.65;80.92
47366;BME280;33105;47.964;7.982;2024-02-26T15:08:14;94908.31;;;12.46;81.86
47366;BME280;33105;47.964;7.982;2024-02-26T15:11:17;94915.56;;;12.42;83.04
47366;BME280;33105;47.964;7.982;2024-02-26T15:14:18;94915.63;;;12.59;82.94
47366;BME280;33105;47.964;7.982;2024-02-26T15:17:20;94918.69;;;12.58;82.49
47366;BME280;33105;47.964;7.982;2024-02-26T15:20:21;94913.88;;;12.89;79.18
47366;BME280;33105;47.964;7.982;2024-02-26T15:23:23;94920.00;;;12.95;78.64
47366;BME280;33105;47.964;7.982;2024-02-26T15:26:24;94919.84;;;12.91;78.19
47366;BME280;33105;47.964;7.982;2024-02-26T15:29:27;94921.13;;;12.77;77.93
47366;BME280;33105;47.964;7.982;2024-02-26T15:32:28;94923.66;;;12.65;78.33
47366;BME280;33105;47.964;7.982;2024-02-26T15:35:29;94928.19;;;12.60;75.69
47366;BME280;33105;47.964;7.982;2024-02-26T15:38:31;94933.63;;;12.52;76.81
47366;BME280;33105;47.964;7.982;2024-02-26T15:41:32;94938.44;;;12.46;76.86
47366;BME280;33105;47.964;7.982;2024-02-26T15:44:33;94938.91;;;12.40;68.56
47366;BME280;33105;47.964;7.982;2024-02-26T15:47:35;94939.22;;;12.30;67.26
47366;BME280;33105;47.964;7.982;2024-02-26T15:50:36;94941.19;;;12.46;66.33
47366;BME280;33105;47.964;7.982;2024-02-26T15:53:39;94955.09;;;12.19;64.57
47366;BME280;33105;47.964;7.982;2024-02-26T15:56:40;94953.41;;;12.32;63.16
47366;BME280;33105;47.964;7.982;2024-02-26T15:59:41;94954.97;;;11.93;62.99
47366;BME280;33105;47.964;7.982;2024-02-26T16:02:47;94965.09;;;11.84;61.83
47366;BME280;33105;47.964;7.982;2024-02-26T16:05:48;94973.66;;;11.69;60.36